South Bend Regional Airport
KSBN : now visible

Airfield :











YOU CAN JOIN US ON...

 
LOGIN :

Register | Disclaimer

   EN    FR    IT 

 









Legend :    VFR   Marginal VFR   IFR   Intensive IFR   Very Intensive IFR
Visi :
Ceiling :
>= 8 km
>= 3000ft
5 to 8 km
1000 to 3000 ft
1500m to 5 km
500 to 1000 ft
800 to 1500m
200 to 500 ft
< 800m
< 200 ft
Symbols :   Thunderstorms  Fog  Heavy snow  Heavy precipitations  Wind > 20 kt






- Airport Elevation : 799 ft
- IATA code : SBN


KSBN - South Bend Regional

CURRENT METAR :
  • 190154Z 20003KT 2 1/2SM BR SCT021 OVC036 03/02 A2977 RMK AO2 SLP086 T00280017

EXPIRED METARs :
  • 190054Z 24005KT 2 1/2SM BR OVC011 03/02 A2977 RMK AO2 SLP088 T00280017
  • 182354Z 24003KT 2SM BR OVC007 03/02 A2977 RMK AO2 CIG 004V009 SLP087 T00280022 10039 20028 50006

TAF KSBN
Valid from the 19 at 00:00 until the 20 at 00:00 UTC


182320Z 1900/1924 27005KT 2SM BR OVC006
FM190800 VRB03KT 6SM BR OVC010
FM191500 21007KT P6SM OVC009
PROB30 1916/1921 2SM -RA BKN005



MET'MAP, your aeronautical weather chart ! - Copyright ORBIFLY December 2007 - Disclaimer

ORBIFLY MET'MAP TEAM :

Programming & Development : Alexandra Zaïnal
Concept & Development : Baudouin d'Aumeries
Co-Development & Prog : Marc-Olivier Méhu
Technical & hardware support : Manuel Goepfert

Contact : metmap@orbifly.com




SOURCES & CREDITS :

   NOAA       Earth
Advisory